Time;durP1;ratioP1;P1;durP2;ratioP2;P2;SDS_P1;SDS_P2;PMS_P1;PMS_P2;Temp;Humidity;BMP_temperature;BMP_pressure;BME280_temperature;BME280_humidity;BME280_pressure;Samples;Min_cycle;Max_cycle;Signal;HPM_P1;HPM_P2
2022/06/05 00:00:20;;;;;;;;;;;;;;;34.22;26.08;98502.50;5045350;28;20383;-80
2022/06/05 00:03:13;;;;;;;;;;;;;;;34.37;25.71;98501.22;5042518;28;20027;-80
2022/06/05 00:05:54;;;;;;;;;;;;;;;34.51;25.64;98508.94;5035433;28;19998;-80
2022/06/05 00:08:20;;;;;;;;;;;;;;;34.49;25.72;98499.31;5042269;28;19925;-80
2022/06/05 00:10:54;;;;;;;;;;;;;;;34.04;26.12;98486.41;5043028;28;19931;-80
2022/06/05 00:13:30;;;;;;;;;;;;;;;33.31;26.89;98492.81;5042429;28;19923;-80
2022/06/05 00:15:56;;;;;;;;;;;;;;;33.30;27.36;98496.16;5044209;28;20277;-80
2022/06/05 00:18:22;;;;;;;;;;;;;;;33.66;26.94;98498.66;5041964;28;19927;-80
2022/06/05 00:20:48;;;;;;;;;;;;;;;33.99;26.32;98495.63;5042904;28;19923;-80
2022/06/05 00:23:14;;;;;;;;;;;;;;;34.21;25.46;98498.09;5045429;28;19970;-80
2022/06/05 00:25:52;;;;;;;;;;;;;;;34.35;25.82;98503.78;5045119;28;20035;-80
2022/06/05 00:28:18;;;;;;;;;;;;;;;34.45;25.93;98501.59;5042865;28;19916;-80
2022/06/05 00:30:44;;;;;;;;;;;;;;;34.33;25.71;98499.84;5044569;28;20383;-80
2022/06/05 00:33:18;;;;;;;;;;;;;;;34.27;25.95;98510.38;5044590;28;20280;-80
2022/06/05 00:36:10;;;;;;;;;;;;;;;34.02;26.59;98508.91;5044454;28;20015;-80
2022/06/05 00:38:41;;;;;;;;;;;;;;;33.26;27.76;98524.78;5039502;28;19924;-80
2022/06/05 00:41:25;;;;;;;;;;;;;;;33.26;27.78;98515.47;5041009;28;19921;-80
2022/06/05 00:43:54;;;;;;;;;;;;;;;33.43;27.32;98513.75;5042445;28;19985;-80
2022/06/05 00:46:22;;;;;;;;;;;;;;;33.56;27.30;98510.66;5045374;28;19924;-80
2022/06/05 00:48:48;;;;;;;;;;;;;;;33.70;27.46;98513.50;5043640;28;19955;-80
2022/06/05 00:51:14;;;;;;;;;;;;;;;33.90;27.02;98507.13;5043027;28;19916;-80
2022/06/05 00:53:40;;;;;;;;;;;;;;;34.11;26.49;98511.66;5045817;28;20376;-80
2022/06/05 00:56:09;;;;;;;;;;;;;;;34.21;26.15;98500.94;5048970;28;19912;-80
2022/06/05 00:58:35;;;;;;;;;;;;;;;34.33;26.12;98511.25;5049279;28;20000;-80
2022/06/05 01:01:01;;;;;;;;;;;;;;;34.48;25.79;98518.50;5046465;28;20090;-80
2022/06/05 01:03:27;;;;;;;;;;;;;;;34.52;25.76;98509.72;5048530;28;20839;-80
2022/06/05 01:05:53;;;;;;;;;;;;;;;34.57;25.61;98515.53;5050172;28;20380;-80
2022/06/05 01:08:19;;;;;;;;;;;;;;;34.62;25.29;98509.13;5050374;28;19921;-81
2022/06/05 01:11:03;;;;;;;;;;;;;;;34.65;25.49;98507.38;5047594;28;19964;-80
2022/06/05 01:13:35;;;;;;;;;;;;;;;34.68;25.19;98506.38;5051408;28;19916;-80
2022/06/05 01:16:30;;;;;;;;;;;;;;;34.55;25.75;98517.31;5047177;28;19999;-80
2022/06/05 01:19:09;;;;;;;;;;;;;;;34.29;25.64;98522.06;5024788;28;19924;-80
2022/06/05 01:21:35;;;;;;;;;;;;;;;33.98;26.44;98516.88;5049881;28;19917;-80
2022/06/05 01:24:09;;;;;;;;;;;;;;;33.90;26.05;98516.47;5048889;28;19923;-80
2022/06/05 01:26:38;;;;;;;;;;;;;;;33.67;26.63;98508.00;5048893;28;19995;-80
2022/06/05 01:29:06;;;;;;;;;;;;;;;33.38;27.36;98515.22;5052351;28;19924;-80
2022/06/05 01:31:36;;;;;;;;;;;;;;;33.28;27.51;98499.47;5026354;28;19924;-80
2022/06/05 01:34:09;;;;;;;;;;;;;;;33.29;26.88;98501.06;5041244;28;19959;-80
2022/06/05 01:36:40;;;;;;;;;;;;;;;33.30;27.01;98496.16;5045477;28;19923;-80
2022/06/05 01:39:09;;;;;;;;;;;;;;;33.44;26.46;98499.00;5043325;28;19920;-80
2022/06/05 01:41:39;;;;;;;;;;;;;;;33.49;26.64;98493.94;5046246;28;20400;-80
2022/06/05 01:44:07;;;;;;;;;;;;;;;33.72;26.08;98491.03;5042584;28;19925;-80
2022/06/05 01:46:34;;;;;;;;;;;;;;;33.93;26.04;98486.22;5046715;28;19919;-80
2022/06/05 01:49:05;;;;;;;;;;;;;;;34.00;25.71;98485.81;5030032;28;20776;-81
2022/06/05 01:51:37;;;;;;;;;;;;;;;34.03;26.12;98488.47;5030099;28;19916;-80
2022/06/05 01:54:08;;;;;;;;;;;;;;;34.06;26.01;98486.72;5042485;28;19920;-80
2022/06/05 01:56:37;;;;;;;;;;;;;;;33.66;26.40;98489.34;5033531;28;19958;-80
2022/06/05 01:59:06;;;;;;;;;;;;;;;32.58;27.74;98503.88;5040060;28;20342;-80
2022/06/05 02:01:34;;;;;;;;;;;;;;;32.62;27.78;98507.34;5037224;28;19955;-80
2022/06/05 02:04:06;;;;;;;;;;;;;;;33.00;27.00;98500.16;5045302;28;19932;-80
2022/06/05 02:06:33;;;;;;;;;;;;;;;33.39;26.82;98502.56;5046475;28;20011;-80
2022/06/05 02:09:05;;;;;;;;;;;;;;;33.70;26.02;98504.19;5028162;28;19924;-80
2022/06/05 02:11:32;;;;;;;;;;;;;;;33.92;25.65;98507.41;5039930;28;19966;-79
2022/06/05 02:14:03;;;;;;;;;;;;;;;34.05;25.36;98493.72;5042181;28;19916;-80
2022/06/05 02:16:30;;;;;;;;;;;;;;;33.78;25.68;98496.81;5042326;28;20019;-80
2022/06/05 02:18:58;;;;;;;;;;;;;;;33.60;26.19;98497.78;5039543;28;19917;-80
2022/06/05 02:21:23;;;;;;;;;;;;;;;33.72;25.61;98482.50;5042457;28;20011;-80
2022/06/05 02:23:49;;;;;;;;;;;;;;;33.90;25.98;98496.53;5037540;28;20020;-80
2022/06/05 02:26:15;;;;;;;;;;;;;;;33.72;25.92;98498.78;5044247;28;19913;-80
2022/06/05 02:28:41;;;;;;;;;;;;;;;33.66;26.06;98507.22;5039216;28;20479;-80
2022/06/05 02:31:26;;;;;;;;;;;;;;;33.61;26.04;98507.91;5043358;28;19920;-80
2022/06/05 02:34:05;;;;;;;;;;;;;;;33.72;25.96;98493.88;5041374;28;20340;-80
2022/06/05 02:36:30;;;;;;;;;;;;;;;33.86;25.80;98500.84;5046952;28;19917;-80
2022/06/05 02:39:15;;;;;;;;;;;;;;;33.69;25.64;98511.16;5045130;28;19917;-80
2022/06/05 02:41:51;;;;;;;;;;;;;;;33.52;25.69;98505.09;5044556;28;19924;-80
2022/06/05 02:44:29;;;;;;;;;;;;;;;33.60;25.67;98509.19;5044541;28;19971;-80
2022/06/05 02:47:10;;;;;;;;;;;;;;;33.67;25.33;98513.72;5043851;28;19978;-80
2022/06/05 02:49:55;;;;;;;;;;;;;;;33.74;25.24;98516.97;5045434;28;19916;-80
2022/06/05 02:52:22;;;;;;;;;;;;;;;33.92;25.24;98510.28;5044360;28;19921;-80
2022/06/05 02:54:56;;;;;;;;;;;;;;;34.03;25.09;98502.72;5041695;28;19924;-80
2022/06/05 02:57:22;;;;;;;;;;;;;;;34.13;25.23;98511.97;5042968;28;19999;-80
2022/06/05 02:59:48;;;;;;;;;;;;;;;33.70;25.60;98509.88;5045271;28;19997;-80
2022/06/05 03:05:16;;;;;;;;;;;;;;;33.87;25.50;98508.91;4987399;28;20373;-80
2022/06/05 03:07:42;;;;;;;;;;;;;;;33.99;25.08;98509.88;5032265;28;20395;-80
2022/06/05 03:10:09;;;;;;;;;;;;;;;34.06;24.93;98515.22;5045794;28;19921;-80
2022/06/05 03:12:35;;;;;;;;;;;;;;;33.51;25.46;98517.00;5041983;28;20022;-80
2022/06/05 03:15:01;;;;;;;;;;;;;;;33.19;26.00;98525.16;5046081;28;20000;-80
2022/06/05 03:17:29;;;;;;;;;;;;;;;33.26;25.91;98536.19;5045355;28;19931;-80
2022/06/05 03:19:55;;;;;;;;;;;;;;;33.35;25.97;98527.56;5041829;28;19916;-80
2022/06/05 03:22:21;;;;;;;;;;;;;;;33.53;25.31;98534.41;5043143;28;19923;-80
2022/06/05 03:24:47;;;;;;;;;;;;;;;33.63;25.14;98524.50;5041281;28;19951;-80
2022/06/05 03:27:13;;;;;;;;;;;;;;;33.29;25.66;98534.41;5042762;28;20394;-80
2022/06/05 03:29:39;;;;;;;;;;;;;;;32.73;26.50;98538.88;5029876;28;19929;-80
2022/06/05 03:32:05;;;;;;;;;;;;;;;32.66;26.99;98539.25;5044690;28;19919;-80
2022/06/05 03:34:31;;;;;;;;;;;;;;;33.16;26.02;98540.38;5043939;28;19928;-80
2022/06/05 03:36:57;;;;;;;;;;;;;;;33.63;25.52;98525.28;5046271;28;20798;-80
2022/06/05 03:39:23;;;;;;;;;;;;;;;33.94;25.02;98542.69;5042783;28;19991;-80
2022/06/05 03:41:49;;;;;;;;;;;;;;;33.79;24.65;98538.28;5043903;28;20023;-80
2022/06/05 03:44:15;;;;;;;;;;;;;;;33.58;25.53;98539.44;5041473;28;20118;-80
2022/06/05 03:46:41;;;;;;;;;;;;;;;33.84;24.99;98534.75;5043916;28;20196;-80
2022/06/05 03:49:08;;;;;;;;;;;;;;;33.94;24.99;98533.34;5041886;28;20015;-81
2022/06/05 03:51:34;;;;;;;;;;;;;;;33.61;25.26;98538.47;5046306;28;19924;-80
2022/06/05 03:54:01;;;;;;;;;;;;;;;33.29;25.58;98543.75;5043975;28;19916;-80
2022/06/05 03:56:28;;;;;;;;;;;;;;;33.28;25.43;98545.00;5045766;28;19932;-80
2022/06/05 03:58:54;;;;;;;;;;;;;;;33.47;25.58;98542.81;5046817;28;19923;-80
2022/06/05 04:01:22;;;;;;;;;;;;;;;33.73;25.18;98535.31;5052416;28;19962;-80
2022/06/05 04:03:48;;;;;;;;;;;;;;;33.97;25.05;98540.94;5047685;28;19917;-80
2022/06/05 04:06:15;;;;;;;;;;;;;;;34.14;24.58;98544.91;5046471;28;19983;-80
2022/06/05 04:08:42;;;;;;;;;;;;;;;33.44;25.33;98541.72;5043479;28;19956;-80
2022/06/05 04:11:10;;;;;;;;;;;;;;;33.07;25.97;98554.66;5048806;28;19921;-80
2022/06/05 04:13:36;;;;;;;;;;;;;;;32.98;26.02;98551.06;5030004;28;20400;-80
2022/06/05 04:16:10;;;;;;;;;;;;;;;33.03;26.06;98550.41;5047031;28;19932;-80
2022/06/05 04:18:36;;;;;;;;;;;;;;;32.98;26.21;98549.00;5044638;28;19925;-80
2022/06/05 04:21:07;;;;;;;;;;;;;;;32.43;27.02;98533.47;5049282;28;19916;-80
2022/06/05 04:23:33;;;;;;;;;;;;;;;32.26;26.91;98538.75;5046861;28;19925;-80
2022/06/05 04:25:59;;;;;;;;;;;;;;;32.18;27.00;98550.94;5047022;28;19916;-80
2022/06/05 04:28:25;;;;;;;;;;;;;;;32.20;27.41;98549.22;5048706;28;19939;-80
2022/06/05 04:30:51;;;;;;;;;;;;;;;32.34;27.28;98553.41;5049428;28;20300;-80
2022/06/05 04:33:18;;;;;;;;;;;;;;;32.42;26.98;98555.44;5045356;28;19913;-82
2022/06/05 04:35:44;;;;;;;;;;;;;;;32.52;27.08;98554.16;5045587;28;19925;-80
2022/06/05 04:38:11;;;;;;;;;;;;;;;32.73;27.00;98558.81;5041904;28;19967;-80
2022/06/05 04:40:37;;;;;;;;;;;;;;;33.12;26.59;98556.03;5046364;28;19928;-80
2022/06/05 04:43:03;;;;;;;;;;;;;;;33.56;26.55;98557.00;5045538;28;19925;-80
2022/06/05 04:45:29;;;;;;;;;;;;;;;33.90;26.17;98550.66;5044097;28;19912;-80
2022/06/05 04:47:55;;;;;;;;;;;;;;;34.13;26.08;98553.94;5040410;28;19960;-82
2022/06/05 04:50:21;;;;;;;;;;;;;;;34.31;26.11;98545.19;5040146;28;20974;-81
2022/06/05 04:52:48;;;;;;;;;;;;;;;34.26;25.61;98552.34;5040199;28;19939;-82
2022/06/05 04:55:14;;;;;;;;;;;;;;;34.11;25.64;98557.28;5024494;28;20376;-80
2022/06/05 04:57:40;;;;;;;;;;;;;;;34.31;25.63;98557.34;5050396;28;19927;-80
2022/06/05 05:00:06;;;;;;;;;;;;;;;34.50;25.66;98555.06;5029449;28;20319;-80
2022/06/05 05:02:32;;;;;;;;;;;;;;;34.68;25.71;98557.72;5044443;28;20277;-81
2022/06/05 05:04:58;;;;;;;;;;;;;;;34.15;25.82;98560.72;5050134;28;19924;-83
2022/06/05 05:07:24;;;;;;;;;;;;;;;34.27;26.36;98562.47;5047857;28;19920;-82
2022/06/05 05:09:50;;;;;;;;;;;;;;;34.30;26.33;98561.50;5039932;28;20372;-81
2022/06/05 05:12:16;;;;;;;;;;;;;;;34.64;26.25;98566.47;5041915;28;19921;-81
2022/06/05 05:14:42;;;;;;;;;;;;;;;34.97;26.57;98568.25;5052833;28;19928;-81
2022/06/05 05:17:08;;;;;;;;;;;;;;;35.33;26.49;98571.38;5040006;28;19917;-81
2022/06/05 05:19:34;;;;;;;;;;;;;;;35.52;25.88;98571.91;5044256;28;20364;-82
2022/06/05 05:22:00;;;;;;;;;;;;;;;35.71;25.54;98576.00;5052773;28;19916;-82
2022/06/05 05:24:26;;;;;;;;;;;;;;;35.80;25.47;98578.69;5039534;28;19975;-82
2022/06/05 05:26:52;;;;;;;;;;;;;;;35.90;25.50;98577.25;5045403;28;19971;-82
2022/06/05 05:29:18;;;;;;;;;;;;;;;36.11;25.94;98578.00;5040452;28;19995;-82
2022/06/05 05:31:45;;;;;;;;;;;;;;;36.41;26.21;98572.81;5044404;28;19920;-82
2022/06/05 05:34:13;;;;;;;;;;;;;;;36.53;25.29;98578.16;5047741;28;20343;-82
2022/06/05 05:36:39;;;;;;;;;;;;;;;36.65;25.01;98567.56;5040856;28;19916;-82
2022/06/05 05:42:06;;;;;;;;;;;;;;;36.86;25.20;98571.09;5045026;28;19927;-82
2022/06/05 05:44:33;;;;;;;;;;;;;;;37.12;24.69;98574.66;5042876;28;19920;-82
2022/06/05 05:47:00;;;;;;;;;;;;;;;37.15;24.88;98577.28;5033646;28;20022;-82
2022/06/05 05:49:26;;;;;;;;;;;;;;;37.28;25.09;98580.47;5043942;28;20295;-81
2022/06/05 05:51:52;;;;;;;;;;;;;;;37.31;24.63;98588.06;5051373;28;19925;-81
2022/06/05 05:54:18;;;;;;;;;;;;;;;37.10;24.10;98589.50;5043116;28;19913;-81
2022/06/05 05:56:44;;;;;;;;;;;;;;;36.21;25.91;98590.06;5040155;28;19916;-81
2022/06/05 05:59:10;;;;;;;;;;;;;;;35.72;25.05;98576.78;5041148;28;19917;-81
2022/06/05 06:01:36;;;;;;;;;;;;;;;35.48;25.05;98579.84;5043446;28;19938;-81
2022/06/05 06:04:03;;;;;;;;;;;;;;;35.26;26.42;98580.38;5041617;28;19958;-81
2022/06/05 06:06:30;;;;;;;;;;;;;;;34.97;26.68;98582.53;5040346;28;19924;-83
2022/06/05 06:08:56;;;;;;;;;;;;;;;33.75;29.00;98583.28;5022506;28;19912;-82
2022/06/05 06:11:23;;;;;;;;;;;;;;;33.57;28.81;98586.25;5038804;28;19970;-81
2022/06/05 06:13:49;;;;;;;;;;;;;;;33.80;27.67;98585.41;5045146;28;19912;-82
2022/06/05 06:16:15;;;;;;;;;;;;;;;34.01;27.74;98584.25;5042645;28;19947;-81
2022/06/05 06:18:41;;;;;;;;;;;;;;;33.99;27.02;98570.50;5043229;28;19968;-80
2022/06/05 06:21:07;;;;;;;;;;;;;;;34.01;27.19;98567.97;5042696;28;20343;-81
2022/06/05 06:23:33;;;;;;;;;;;;;;;34.33;27.00;98568.28;5040218;28;20675;-81
2022/06/05 06:25:59;;;;;;;;;;;;;;;33.98;26.90;98566.09;5041444;28;19916;-80
2022/06/05 06:28:25;;;;;;;;;;;;;;;34.12;27.23;98566.63;5039466;28;19917;-80
2022/06/05 06:30:51;;;;;;;;;;;;;;;34.72;27.16;98556.25;5023688;28;21604;-79
2022/06/05 06:33:17;;;;;;;;;;;;;;;35.29;26.66;98562.22;5043157;28;19962;-80
2022/06/05 06:35:43;;;;;;;;;;;;;;;35.32;25.45;98566.16;5043095;28;20326;-79
2022/06/05 06:38:09;;;;;;;;;;;;;;;35.22;25.51;98573.28;5041582;28;19913;-80
2022/06/05 06:40:36;;;;;;;;;;;;;;;34.92;26.04;98571.81;5036765;28;19971;-79
2022/06/05 06:43:02;;;;;;;;;;;;;;;34.83;26.27;98569.06;5038871;28;19952;-79
2022/06/05 06:45:28;;;;;;;;;;;;;;;34.77;26.18;98563.31;5038040;28;19939;-79
2022/06/05 06:47:54;;;;;;;;;;;;;;;35.18;26.38;98572.72;5044828;28;20408;-79
2022/06/05 06:50:20;;;;;;;;;;;;;;;35.35;25.90;98565.97;5038184;28;19924;-80
2022/06/05 06:52:46;;;;;;;;;;;;;;;35.85;25.70;98565.78;5042906;28;19935;-80
2022/06/05 06:55:15;;;;;;;;;;;;;;;36.14;25.79;98561.91;5043072;28;19921;-80
2022/06/05 06:57:45;;;;;;;;;;;;;;;36.19;24.58;98561.19;5042150;28;19912;-79
2022/06/05 07:00:16;;;;;;;;;;;;;;;35.90;24.68;98556.44;5039236;28;20494;-79
2022/06/05 07:02:42;;;;;;;;;;;;;;;35.83;25.34;98551.97;5037679;28;20380;-79
2022/06/05 07:05:08;;;;;;;;;;;;;;;35.74;25.53;98551.34;5038664;28;20335;-79
2022/06/05 07:07:34;;;;;;;;;;;;;;;35.58;24.83;98544.16;5040599;28;19962;-79
2022/06/05 07:10:00;;;;;;;;;;;;;;;35.75;25.66;98547.22;5042092;28;19956;-80
2022/06/05 07:12:26;;;;;;;;;;;;;;;35.28;26.65;98554.16;5025413;28;19925;-79
2022/06/05 07:14:52;;;;;;;;;;;;;;;35.36;26.45;98544.66;5043471;28;20007;-79
2022/06/05 07:17:18;;;;;;;;;;;;;;;35.34;26.20;98546.44;5038653;28;20365;-79
2022/06/05 07:19:44;;;;;;;;;;;;;;;35.72;25.31;98539.63;5045875;28;19925;-79
2022/06/05 07:22:10;;;;;;;;;;;;;;;35.93;25.81;98546.88;5040935;28;19917;-80
2022/06/05 07:24:36;;;;;;;;;;;;;;;36.15;25.07;98543.47;5048469;28;20289;-80
2022/06/05 07:27:02;;;;;;;;;;;;;;;36.37;25.21;98540.78;5044600;28;19977;-80
2022/06/05 07:29:28;;;;;;;;;;;;;;;35.72;25.76;98545.34;5040716;28;19931;-80
2022/06/05 07:31:54;;;;;;;;;;;;;;;35.82;26.25;98541.06;5045116;28;20293;-80
2022/06/05 07:34:20;;;;;;;;;;;;;;;35.85;26.55;98549.38;5043903;28;19916;-80
2022/06/05 07:36:46;;;;;;;;;;;;;;;36.11;25.17;98545.78;5039243;28;19998;-80
2022/06/05 07:39:12;;;;;;;;;;;;;;;36.37;24.43;98549.38;5041729;28;20388;-80
2022/06/05 07:41:38;;;;;;;;;;;;;;;36.39;24.49;98553.28;5040875;28;20023;-80
2022/06/05 07:44:05;;;;;;;;;;;;;;;36.28;24.94;98549.56;5039374;28;19923;-80
2022/06/05 07:46:32;;;;;;;;;;;;;;;36.35;25.30;98552.75;5038104;28;19948;-80
2022/06/05 07:48:58;;;;;;;;;;;;;;;34.17;28.25;98558.16;5041118;28;20008;-80
2022/06/05 07:57:00;;;;;;;;;;;;;;;34.68;26.78;98560.59;5031300;28;19916;-80
2022/06/05 07:59:27;;;;;;;;;;;;;;;35.45;25.23;98558.03;5039938;28;19986;-80
2022/06/05 08:01:53;;;;;;;;;;;;;;;36.29;24.17;98557.66;5045685;28;19924;-81
2022/06/05 08:04:19;;;;;;;;;;;;;;;36.56;23.27;98553.47;5047141;28;20364;-80
2022/06/05 08:06:45;;;;;;;;;;;;;;;36.22;24.92;98557.31;5039201;28;20569;-80
2022/06/05 08:09:11;;;;;;;;;;;;;;;36.72;23.02;98556.44;5040226;28;19917;-80
2022/06/05 08:11:39;;;;;;;;;;;;;;;36.50;25.03;98564.84;5040540;28;19917;-81
2022/06/05 08:14:05;;;;;;;;;;;;;;;34.75;28.19;98557.31;5039035;28;19925;-79
2022/06/05 08:16:32;;;;;;;;;;;;;;;33.41;30.33;98570.38;5038217;28;20293;-80
2022/06/05 08:18:58;;;;;;;;;;;;;;;32.90;30.98;98579.09;5039589;28;20305;-79
2022/06/05 08:21:24;;;;;;;;;;;;;;;33.14;31.16;98570.59;5042646;28;19962;-79
2022/06/05 08:23:50;;;;;;;;;;;;;;;34.23;28.71;98572.50;5038540;28;19924;-79
2022/06/05 08:26:16;;;;;;;;;;;;;;;35.29;27.09;98570.00;5044871;28;19940;-79
2022/06/05 08:28:42;;;;;;;;;;;;;;;33.53;28.56;98582.81;5043822;28;20326;-79
2022/06/05 08:31:08;;;;;;;;;;;;;;;34.61;28.62;98573.16;5041067;28;19921;-80
2022/06/05 08:33:34;;;;;;;;;;;;;;;33.44;29.96;98575.88;5038283;28;19987;-79
2022/06/05 08:36:00;;;;;;;;;;;;;;;33.03;30.58;98576.81;5039000;28;19956;-79
2022/06/05 08:41:32;;;;;;;;;;;;;;;32.13;31.38;98575.13;5037639;28;19928;-79
2022/06/05 08:44:04;;;;;;;;;;;;;;;33.04;29.79;98569.88;5042039;28;19924;-79
2022/06/05 08:46:38;;;;;;;;;;;;;;;31.68;31.16;98567.44;5029588;28;19962;-79
2022/06/05 08:49:09;;;;;;;;;;;;;;;32.39;30.11;98569.84;5043009;28;19928;-79
2022/06/05 08:51:38;;;;;;;;;;;;;;;33.93;28.82;98560.31;5041194;28;19970;-80
2022/06/05 08:54:05;;;;;;;;;;;;;;;33.17;31.57;98563.91;5038934;28;19928;-80
2022/06/05 08:56:35;;;;;;;;;;;;;;;32.61;29.07;98568.34;5044245;28;20280;-79
2022/06/05 08:59:11;;;;;;;;;;;;;;;33.42;28.54;98567.03;5040720;28;21717;-79
2022/06/05 09:01:41;;;;;;;;;;;;;;;33.22;29.41;98571.78;5042998;28;20007;-79
2022/06/05 09:04:16;;;;;;;;;;;;;;;31.56;30.75;98568.38;5046934;28;19917;-82
2022/06/05 09:06:45;;;;;;;;;;;;;;;31.08;30.51;98563.59;5041681;28;20011;-83
2022/06/05 09:09:20;;;;;;;;;;;;;;;31.35;31.59;98550.22;5039110;28;20019;-83
2022/06/05 09:12:05;;;;;;;;;;;;;;;31.76;29.04;98554.50;5042581;28;19924;-83
2022/06/05 09:14:40;;;;;;;;;;;;;;;31.67;29.93;98557.31;5046546;28;19917;-82
2022/06/05 09:17:14;;;;;;;;;;;;;;;31.59;28.99;98552.47;5026476;28;20388;-83
2022/06/05 09:19:41;;;;;;;;;;;;;;;31.81;30.07;98550.22;5040997;28;20395;-81
2022/06/05 09:22:18;;;;;;;;;;;;;;;32.33;31.06;98549.78;5044645;28;20399;-80
2022/06/05 09:25:05;;;;;;;;;;;;;;;31.81;29.98;98556.69;5041716;28;20011;-79
2022/06/05 09:27:50;;;;;;;;;;;;;;;32.33;29.24;98566.84;5042089;28;19920;-78
2022/06/05 09:30:22;;;;;;;;;;;;;;;32.77;28.15;98555.75;5040504;28;19917;-79
2022/06/05 09:33:05;;;;;;;;;;;;;;;32.30;28.64;98555.66;5041296;28;20387;-78
2022/06/05 09:35:35;;;;;;;;;;;;;;;32.51;28.25;98552.56;5043670;28;20288;-79
2022/06/05 09:38:06;;;;;;;;;;;;;;;32.66;30.06;98553.47;5036771;28;19947;-78
2022/06/05 09:40:37;;;;;;;;;;;;;;;32.50;27.26;98556.69;5025760;28;20364;-78
2022/06/05 09:43:30;;;;;;;;;;;;;;;31.77;28.19;98555.28;5036698;28;19925;-78
2022/06/05 09:46:09;;;;;;;;;;;;;;;32.79;26.92;98558.94;5042700;28;20361;-78
2022/06/05 09:48:53;;;;;;;;;;;;;;;33.54;26.08;98553.84;5042085;28;19917;-80
2022/06/05 09:51:19;;;;;;;;;;;;;;;33.88;25.19;98552.44;5041621;28;19923;-77
2022/06/05 09:53:54;;;;;;;;;;;;;;;33.58;26.35;98547.97;5042141;28;20347;-77
2022/06/05 09:56:20;;;;;;;;;;;;;;;33.08;26.50;98541.22;5026043;28;19978;-78
2022/06/05 09:59:09;;;;;;;;;;;;;;;33.92;24.22;98541.63;5040657;28;19983;-79
2022/06/05 10:01:47;;;;;;;;;;;;;;;34.87;24.82;98541.13;5038176;28;20364;-80
2022/06/05 10:04:13;;;;;;;;;;;;;;;35.69;23.75;98538.56;5044867;28;19928;-79
2022/06/05 10:06:44;;;;;;;;;;;;;;;34.38;23.52;98542.69;5041799;28;19928;-78
2022/06/05 10:09:14;;;;;;;;;;;;;;;34.60;23.23;98537.38;5042844;28;20277;-78
2022/06/05 10:11:46;;;;;;;;;;;;;;;35.40;23.45;98535.88;5042405;28;20322;-78
2022/06/05 10:14:18;;;;;;;;;;;;;;;35.32;20.64;98531.88;5045819;28;19924;-78
2022/06/05 10:16:50;;;;;;;;;;;;;;;34.93;22.67;98537.06;5042200;28;20268;-78
2022/06/05 10:19:25;;;;;;;;;;;;;;;35.17;22.04;98542.63;5044715;28;19979;-78
2022/06/05 10:21:54;;;;;;;;;;;;;;;33.36;23.71;98551.91;5042192;28;19924;-78
2022/06/05 10:24:30;;;;;;;;;;;;;;;34.05;25.92;98545.78;5042570;28;19939;-78
2022/06/05 10:26:59;;;;;;;;;;;;;;;35.61;23.44;98546.03;5042130;28;19955;-78
2022/06/05 10:29:28;;;;;;;;;;;;;;;35.40;23.03;98533.78;5037345;28;19920;-78
2022/06/05 10:32:00;;;;;;;;;;;;;;;34.56;21.75;98547.44;5039180;28;19913;-78
2022/06/05 10:34:32;;;;;;;;;;;;;;;33.25;22.84;98548.84;5044973;28;19917;-78
2022/06/05 10:37:24;;;;;;;;;;;;;;;34.99;21.48;98523.66;5044175;28;19917;-79
2022/06/05 10:40:09;;;;;;;;;;;;;;;35.37;20.88;98528.31;5039152;28;19947;-79
2022/06/05 10:42:42;;;;;;;;;;;;;;;35.50;22.39;98534.47;5041457;28;19978;-79
2022/06/05 10:45:16;;;;;;;;;;;;;;;35.20;20.67;98525.25;5039127;28;20265;-78
2022/06/05 10:48:03;;;;;;;;;;;;;;;35.37;21.52;98522.59;5041124;28;19921;-80
2022/06/05 10:50:50;;;;;;;;;;;;;;;34.58;22.09;98522.03;5038084;28;20623;-80
2022/06/05 10:53:19;;;;;;;;;;;;;;;34.32;23.82;98518.22;5026952;28;19917;-79
2022/06/05 10:56:03;;;;;;;;;;;;;;;34.19;23.14;98514.91;5043676;28;19934;-79
2022/06/05 10:58:47;;;;;;;;;;;;;;;36.34;20.96;98513.22;5050889;28;19916;-79
2022/06/05 11:01:35;;;;;;;;;;;;;;;36.05;20.46;98509.34;5044692;28;19916;-79
2022/06/05 11:04:10;;;;;;;;;;;;;;;37.20;20.04;98504.16;5049900;28;20357;-79
2022/06/05 11:06:55;;;;;;;;;;;;;;;36.04;19.95;98504.91;5053628;28;19921;-79
2022/06/05 11:09:40;;;;;;;;;;;;;;;35.62;20.08;98510.44;5045743;28;19917;-80
2022/06/05 11:15:13;;;;;;;;;;;;;;;37.14;19.63;98491.88;5039708;28;19970;-81
2022/06/05 11:18:09;;;;;;;;;;;;;;;36.66;20.36;98503.31;5047077;28;19916;-79
2022/06/05 11:20:35;;;;;;;;;;;;;;;36.00;20.42;98489.28;5037961;28;19916;-79
2022/06/05 11:23:16;;;;;;;;;;;;;;;35.28;19.38;98497.84;5045208;28;19999;-79
2022/06/05 11:25:59;;;;;;;;;;;;;;;34.39;21.71;98490.09;5028741;28;20384;-80
2022/06/05 11:28:43;;;;;;;;;;;;;;;34.91;20.01;98499.69;5040944;28;19924;-80
2022/06/05 11:31:28;;;;;;;;;;;;;;;36.63;21.34;98490.81;5043863;28;19924;-81
2022/06/05 11:34:04;;;;;;;;;;;;;;;36.38;18.97;98490.88;5024396;28;19970;-82
2022/06/05 11:36:40;;;;;;;;;;;;;;;34.94;19.63;98478.69;5042592;28;19935;-83
2022/06/05 11:39:12;;;;;;;;;;;;;;;35.12;18.68;98480.53;5045349;28;20002;-83
2022/06/05 11:41:38;;;;;;;;;;;;;;;36.05;18.20;98486.47;5041320;28;19929;-81
2022/06/05 11:44:07;;;;;;;;;;;;;;;36.64;17.71;98478.06;5042921;28;20063;-81
2022/06/05 11:46:37;;;;;;;;;;;;;;;37.65;18.46;98482.16;5040634;28;19960;-80
2022/06/05 11:49:07;;;;;;;;;;;;;;;36.35;18.28;98478.38;5040780;28;19921;-81
2022/06/05 11:51:36;;;;;;;;;;;;;;;35.40;18.98;98473.06;5037211;28;19921;-79
2022/06/05 11:54:14;;;;;;;;;;;;;;;36.15;18.77;98472.00;5038306;28;19917;-80
2022/06/05 11:56:40;;;;;;;;;;;;;;;36.58;18.51;98474.41;5039838;28;19923;-81
2022/06/05 11:59:15;;;;;;;;;;;;;;;37.05;18.58;98466.31;5039721;28;19932;-80
2022/06/05 12:01:44;;;;;;;;;;;;;;;37.78;18.00;98468.09;5040042;28;19962;-83
2022/06/05 12:04:20;;;;;;;;;;;;;;;36.85;16.85;98467.28;5037541;28;19927;-85
2022/06/05 12:06:51;;;;;;;;;;;;;;;35.82;18.76;98473.25;5041796;28;20334;-83
2022/06/05 12:09:19;;;;;;;;;;;;;;;34.60;19.67;98470.97;5041316;28;19917;-82
2022/06/05 12:11:50;;;;;;;;;;;;;;;36.52;19.39;98455.63;5037710;28;19979;-83
2022/06/05 12:14:29;;;;;;;;;;;;;;;37.19;17.41;98456.75;5037917;28;20341;-83
2022/06/05 12:17:14;;;;;;;;;;;;;;;37.13;18.02;98458.81;5040096;28;19920;-83
2022/06/05 12:19:52;;;;;;;;;;;;;;;36.49;17.40;98450.94;5041562;28;19963;-83
2022/06/05 12:22:23;;;;;;;;;;;;;;;35.82;17.07;98449.59;5039580;28;19940;-82
2022/06/05 12:24:50;;;;;;;;;;;;;;;36.45;16.84;98447.53;5041213;28;19924;-80
2022/06/05 12:27:20;;;;;;;;;;;;;;;35.24;18.04;98439.41;5036848;28;19917;-81
2022/06/05 12:29:57;;;;;;;;;;;;;;;36.04;16.77;98439.16;5042697;28;19920;-82
2022/06/05 12:32:27;;;;;;;;;;;;;;;35.99;19.49;98439.88;5042486;28;20387;-82
2022/06/05 12:35:10;;;;;;;;;;;;;;;35.89;16.21;98449.16;5039343;28;20718;-83
2022/06/05 12:37:43;;;;;;;;;;;;;;;35.97;18.70;98439.63;5038199;28;20487;-83
2022/06/05 12:40:15;;;;;;;;;;;;;;;36.27;18.36;98439.31;5021642;28;19967;-83
2022/06/05 12:42:46;;;;;;;;;;;;;;;35.86;17.72;98422.34;5040810;28;20284;-83
2022/06/05 12:45:19;;;;;;;;;;;;;;;36.77;16.57;98414.66;5034532;28;20762;-84
2022/06/05 12:48:00;;;;;;;;;;;;;;;37.03;16.37;98412.44;5043239;28;20339;-87
2022/06/05 12:50:45;;;;;;;;;;;;;;;35.58;18.13;98423.41;5037824;28;19975;-87
2022/06/05 12:53:34;;;;;;;;;;;;;;;34.21;20.25;98415.44;5026678;28;19920;-87
2022/06/05 12:56:13;;;;;;;;;;;;;;;33.98;20.56;98425.69;5039183;28;19920;-87
2022/06/05 12:58:49;;;;;;;;;;;;;;;34.18;20.97;98422.91;5037564;28;20118;-87
2022/06/05 13:01:18;;;;;;;;;;;;;;;35.06;19.45;98417.63;5038548;28;19936;-88
2022/06/05 13:03:53;;;;;;;;;;;;;;;35.25;19.35;98412.38;5040037;28;19986;-88
2022/06/05 13:06:19;;;;;;;;;;;;;;;35.43;19.62;98403.47;5033505;28;19931;-87
2022/06/05 13:08:47;;;;;;;;;;;;;;;36.72;17.70;98409.69;5039960;28;19917;-86
2022/06/05 13:11:13;;;;;;;;;;;;;;;36.99;18.77;98408.28;5037902;28;19925;-86
2022/06/05 13:13:45;;;;;;;;;;;;;;;38.14;18.19;98401.13;5041349;28;19916;-86
2022/06/05 13:16:17;;;;;;;;;;;;;;;38.96;15.99;98389.94;5039459;28;19924;-86
2022/06/05 13:18:57;;;;;;;;;;;;;;;37.54;16.10;98396.94;5022236;28;19921;-85
2022/06/05 13:21:27;;;;;;;;;;;;;;;37.66;16.17;98389.94;5037615;28;19920;-85